Aeroporto :







RITROVATECI SU...

 
LOGIN :

Iscrizione | Disclaimer

   EN    FR    IT 

 









Sommario :    VFR   VFR Marginale   IFR   IFR Intensivo   IFR Molto Intensivo
Visibilità : 
Base nubi : 
>= 8 km
>= 3000ft
5 / 8 km
1000 / 3000 ft
1500m / 5 km
500 / 1000 ft
800 / 1500m
200 / 500 ft
< 800m
< 200 ft
Simboli :   Temporali  Nebbia  Neve Forte  Precipitazioni Forti  Vento > 20 kt






- Altitudine del aeroporto : 166 ft
- Codice IATA : YCX


CYCX - Gagetown Heliport

ULTIMO METAR :
  • 111300Z AUTO 17006KT 9SM OVC010 OVC033 24/21 A2994 RMK SLP140

METARs OBSOLETI :
  • 111236Z AUTO 16006KT 110V180 9SM OVC010 OVC022 OVC033 23/20 A2995
  • 111220Z AUTO 16007KT 110V180 9SM BKN009 BKN017 OVC022 23/20 A2995
  • 111206Z AUTO 15004KT 9SM SCT008 BKN022 22/20 A2996
  • 111110Z AUTO 15006KT 120V180 9SM BKN007 OVC019 22/19 A2997
  • 111100Z AUTO 15003KT 100V180 9SM SCT008 OVC021 21/19 A2997 RMK SLP148

Previsioni scadute.
FIR CZQM / America del Nord



MetMap, La meteo Aeronautica in un colpo d'occhio ! - Copyright ORBIFLY Dicembre 2007 - Disclaimer

ORBIFLY MET'MAP TEAM :

Programmazione e sviluppo : Alexandra Zaïnal
Concezione : Baudouin d'Aumeries
Aiuto per la programmazione : Marc-Olivier Méhu
Supporto tecnico e logistico : Manuel Goepfert
Aiuto per la traduzione : Arnaldo La Scala

Contatto : metmap@orbifly.com




FONTI E CREDITI :

   NOAA